sensor_id;sensor_type;location;lat;lon;timestamp;pressure;altitude;pressure_sealevel;temperature
68588;BMP180;55560;52.174;20.996;2023-04-24T00:01:42;99698.60;;;13.72
68588;BMP180;55560;52.174;20.996;2023-04-24T00:04:11;99694.00;;;13.70
68588;BMP180;55560;52.174;20.996;2023-04-24T00:06:42;99694.00;;;13.70
68588;BMP180;55560;52.174;20.996;2023-04-24T00:09:10;99693.40;;;13.70
68588;BMP180;55560;52.174;20.996;2023-04-24T00:11:38;99695.20;;;13.70
68588;BMP180;55560;52.174;20.996;2023-04-24T00:14:06;99689.80;;;13.68
68588;BMP180;55560;52.174;20.996;2023-04-24T00:16:34;99693.80;;;13.60
68588;BMP180;55560;52.174;20.996;2023-04-24T00:19:02;99690.80;;;13.60
68588;BMP180;55560;52.174;20.996;2023-04-24T00:21:30;99691.00;;;13.60
68588;BMP180;55560;52.174;20.996;2023-04-24T00:24:00;99688.40;;;13.58
68588;BMP180;55560;52.174;20.996;2023-04-24T00:26:28;99686.80;;;13.50
68588;BMP180;55560;52.174;20.996;2023-04-24T00:28:58;99680.80;;;13.50
68588;BMP180;55560;52.174;20.996;2023-04-24T00:31:26;99677.80;;;13.50
68588;BMP180;55560;52.174;20.996;2023-04-24T00:33:54;99680.20;;;13.50
68588;BMP180;55560;52.174;20.996;2023-04-24T00:36:22;99673.60;;;13.50
68588;BMP180;55560;52.174;20.996;2023-04-24T00:38:50;99672.20;;;13.50
68588;BMP180;55560;52.174;20.996;2023-04-24T00:41:22;99670.00;;;13.44
68588;BMP180;55560;52.174;20.996;2023-04-24T00:43:52;99667.60;;;13.40
68588;BMP180;55560;52.174;20.996;2023-04-24T00:46:21;99669.20;;;13.40
68588;BMP180;55560;52.174;20.996;2023-04-24T00:48:50;99665.60;;;13.40
68588;BMP180;55560;52.174;20.996;2023-04-24T00:51:18;99668.40;;;13.40
68588;BMP180;55560;52.174;20.996;2023-04-24T00:53:46;99672.40;;;13.40
68588;BMP180;55560;52.174;20.996;2023-04-24T00:56:14;99678.40;;;13.40
68588;BMP180;55560;52.174;20.996;2023-04-24T00:58:43;99672.40;;;13.40
68588;BMP180;55560;52.174;20.996;2023-04-24T01:01:12;99670.00;;;13.40
68588;BMP180;55560;52.174;20.996;2023-04-24T01:03:40;99664.60;;;13.30
68588;BMP180;55560;52.174;20.996;2023-04-24T01:06:09;99663.40;;;13.30
68588;BMP180;55560;52.174;20.996;2023-04-24T01:08:38;99662.20;;;13.30
68588;BMP180;55560;52.174;20.996;2023-04-24T01:11:06;99666.40;;;13.30
68588;BMP180;55560;52.174;20.996;2023-04-24T01:13:34;99665.40;;;13.30
68588;BMP180;55560;52.174;20.996;2023-04-24T01:16:03;99667.40;;;13.38
68588;BMP180;55560;52.174;20.996;2023-04-24T01:18:31;99670.60;;;13.30
68588;BMP180;55560;52.174;20.996;2023-04-24T01:20:59;99669.80;;;13.32
68588;BMP180;55560;52.174;20.996;2023-04-24T01:23:31;99670.00;;;13.38
68588;BMP180;55560;52.174;20.996;2023-04-24T01:25:59;99667.20;;;13.40
68588;BMP180;55560;52.174;20.996;2023-04-24T01:28:27;99664.80;;;13.30
68588;BMP180;55560;52.174;20.996;2023-04-24T01:30:58;99666.20;;;13.30
68588;BMP180;55560;52.174;20.996;2023-04-24T01:33:27;99664.60;;;13.30
68588;BMP180;55560;52.174;20.996;2023-04-24T01:35:55;99670.40;;;13.30
68588;BMP180;55560;52.174;20.996;2023-04-24T01:38:23;99668.20;;;13.30
68588;BMP180;55560;52.174;20.996;2023-04-24T01:40:51;99666.40;;;13.20
68588;BMP180;55560;52.174;20.996;2023-04-24T01:43:20;99662.00;;;13.20
68588;BMP180;55560;52.174;20.996;2023-04-24T01:45:48;99657.60;;;13.10
68588;BMP180;55560;52.174;20.996;2023-04-24T01:48:16;99658.00;;;13.10
68588;BMP180;55560;52.174;20.996;2023-04-24T01:50:44;99654.20;;;13.00
68588;BMP180;55560;52.174;20.996;2023-04-24T01:53:12;99653.40;;;13.00
68588;BMP180;55560;52.174;20.996;2023-04-24T01:55:40;99655.40;;;12.90
68588;BMP180;55560;52.174;20.996;2023-04-24T01:58:09;99649.00;;;12.90
68588;BMP180;55560;52.174;20.996;2023-04-24T02:00:37;99645.80;;;12.86
68588;BMP180;55560;52.174;20.996;2023-04-24T02:03:04;99642.40;;;12.80
68588;BMP180;55560;52.174;20.996;2023-04-24T02:05:34;99642.80;;;12.80
68588;BMP180;55560;52.174;20.996;2023-04-24T02:08:03;99640.40;;;12.80
68588;BMP180;55560;52.174;20.996;2023-04-24T02:10:37;99636.40;;;12.78
68588;BMP180;55560;52.174;20.996;2023-04-24T02:13:05;99635.60;;;12.78
68588;BMP180;55560;52.174;20.996;2023-04-24T02:15:33;99634.00;;;12.70
68588;BMP180;55560;52.174;20.996;2023-04-24T02:18:01;99630.00;;;12.70
68588;BMP180;55560;52.174;20.996;2023-04-24T02:20:32;99627.20;;;12.70
68588;BMP180;55560;52.174;20.996;2023-04-24T02:23:01;99620.20;;;12.70
68588;BMP180;55560;52.174;20.996;2023-04-24T02:25:29;99614.20;;;12.70
68588;BMP180;55560;52.174;20.996;2023-04-24T02:27:57;99612.00;;;12.70
68588;BMP180;55560;52.174;20.996;2023-04-24T02:30:26;99612.00;;;12.70
68588;BMP180;55560;52.174;20.996;2023-04-24T02:32:54;99610.20;;;12.70
68588;BMP180;55560;52.174;20.996;2023-04-24T02:35:23;99612.00;;;12.70
68588;BMP180;55560;52.174;20.996;2023-04-24T02:37:51;99608.60;;;12.70
68588;BMP180;55560;52.174;20.996;2023-04-24T02:40:19;99606.40;;;12.70
68588;BMP180;55560;52.174;20.996;2023-04-24T02:42:47;99607.00;;;12.62
68588;BMP180;55560;52.174;20.996;2023-04-24T02:45:15;99608.60;;;12.60
68588;BMP180;55560;52.174;20.996;2023-04-24T02:47:44;99609.40;;;12.60
68588;BMP180;55560;52.174;20.996;2023-04-24T02:50:12;99610.00;;;12.60
68588;BMP180;55560;52.174;20.996;2023-04-24T02:52:39;99614.40;;;12.60
68588;BMP180;55560;52.174;20.996;2023-04-24T02:55:07;99608.20;;;12.60
68588;BMP180;55560;52.174;20.996;2023-04-24T02:57:36;99609.60;;;12.60
68588;BMP180;55560;52.174;20.996;2023-04-24T03:00:05;99600.60;;;12.60
68588;BMP180;55560;52.174;20.996;2023-04-24T03:02:34;99605.20;;;12.60
68588;BMP180;55560;52.174;20.996;2023-04-24T03:05:03;99598.80;;;12.56
68588;BMP180;55560;52.174;20.996;2023-04-24T03:07:32;99596.20;;;12.50
68588;BMP180;55560;52.174;20.996;2023-04-24T03:10:00;99598.80;;;12.50
68588;BMP180;55560;52.174;20.996;2023-04-24T03:12:27;99596.80;;;12.50
68588;BMP180;55560;52.174;20.996;2023-04-24T03:14:55;99596.60;;;12.46
68588;BMP180;55560;52.174;20.996;2023-04-24T03:17:24;99600.20;;;12.40
68588;BMP180;55560;52.174;20.996;2023-04-24T03:19:52;99601.20;;;12.40
68588;BMP180;55560;52.174;20.996;2023-04-24T03:22:19;99605.00;;;12.34
68588;BMP180;55560;52.174;20.996;2023-04-24T03:24:47;99604.60;;;12.30
68588;BMP180;55560;52.174;20.996;2023-04-24T03:27:17;99602.00;;;12.30
68588;BMP180;55560;52.174;20.996;2023-04-24T03:29:55;99607.20;;;12.30
68588;BMP180;55560;52.174;20.996;2023-04-24T03:32:44;99611.40;;;12.30
68588;BMP180;55560;52.174;20.996;2023-04-24T03:35:13;99608.60;;;12.30
68588;BMP180;55560;52.174;20.996;2023-04-24T03:37:41;99609.40;;;12.30
68588;BMP180;55560;52.174;20.996;2023-04-24T03:40:34;99616.00;;;12.26
68588;BMP180;55560;52.174;20.996;2023-04-24T03:43:05;99614.00;;;12.20
68588;BMP180;55560;52.174;20.996;2023-04-24T03:45:33;99618.80;;;12.20
68588;BMP180;55560;52.174;20.996;2023-04-24T03:48:01;99618.00;;;12.20
68588;BMP180;55560;52.174;20.996;2023-04-24T03:50:30;99615.20;;;12.20
68588;BMP180;55560;52.174;20.996;2023-04-24T03:52:59;99609.60;;;12.20
68588;BMP180;55560;52.174;20.996;2023-04-24T03:55:35;99613.20;;;12.20
68588;BMP180;55560;52.174;20.996;2023-04-24T03:58:03;99617.80;;;12.20
68588;BMP180;55560;52.174;20.996;2023-04-24T11:41:06;99440.60;;;24.36
68588;BMP180;55560;52.174;20.996;2023-04-24T11:43:34;99437.80;;;24.60
68588;BMP180;55560;52.174;20.996;2023-04-24T11:46:02;99435.20;;;24.60
68588;BMP180;55560;52.174;20.996;2023-04-24T11:48:36;99426.80;;;24.52
68588;BMP180;55560;52.174;20.996;2023-04-24T11:51:07;99436.20;;;24.50
68588;BMP180;55560;52.174;20.996;2023-04-24T11:53:38;99430.00;;;24.50
68588;BMP180;55560;52.174;20.996;2023-04-24T11:56:09;99425.00;;;24.50
68588;BMP180;55560;52.174;20.996;2023-04-24T11:58:38;99428.00;;;24.52
68588;BMP180;55560;52.174;20.996;2023-04-24T12:01:06;99425.00;;;24.50
68588;BMP180;55560;52.174;20.996;2023-04-24T12:03:34;99423.20;;;24.50
68588;BMP180;55560;52.174;20.996;2023-04-24T12:06:10;99413.40;;;24.50
68588;BMP180;55560;52.174;20.996;2023-04-24T12:08:38;99409.40;;;24.60
68588;BMP180;55560;52.174;20.996;2023-04-24T12:11:07;99407.60;;;24.70
68588;BMP180;55560;52.174;20.996;2023-04-24T12:13:35;99399.00;;;24.80
68588;BMP180;55560;52.174;20.996;2023-04-24T12:16:04;99401.40;;;24.88
68588;BMP180;55560;52.174;20.996;2023-04-24T12:18:33;99399.20;;;24.90
68588;BMP180;55560;52.174;20.996;2023-04-24T12:21:22;99397.40;;;24.90
68588;BMP180;55560;52.174;20.996;2023-04-24T12:23:50;99396.20;;;25.00
68588;BMP180;55560;52.174;20.996;2023-04-24T12:26:19;99398.80;;;25.10
68588;BMP180;55560;52.174;20.996;2023-04-24T12:28:49;99399.60;;;25.30
68588;BMP180;55560;52.174;20.996;2023-04-24T12:31:17;99398.20;;;25.50
68588;BMP180;55560;52.174;20.996;2023-04-24T12:33:45;99400.40;;;25.60
68588;BMP180;55560;52.174;20.996;2023-04-24T12:36:13;99399.00;;;25.70
68588;BMP180;55560;52.174;20.996;2023-04-24T12:38:43;99414.20;;;25.80
68588;BMP180;55560;52.174;20.996;2023-04-24T12:41:13;99432.80;;;25.60
68588;BMP180;55560;52.174;20.996;2023-04-24T12:43:52;99436.20;;;25.20
68588;BMP180;55560;52.174;20.996;2023-04-24T12:46:20;99440.60;;;24.78
68588;BMP180;55560;52.174;20.996;2023-04-24T12:48:49;99432.40;;;24.30
68588;BMP180;55560;52.174;20.996;2023-04-24T12:51:17;99439.60;;;23.90
68588;BMP180;55560;52.174;20.996;2023-04-24T12:53:45;99437.40;;;23.60
68588;BMP180;55560;52.174;20.996;2023-04-24T12:56:13;99435.00;;;23.50
68588;BMP180;55560;52.174;20.996;2023-04-24T12:58:41;99434.80;;;23.48
68588;BMP180;55560;52.174;20.996;2023-04-24T13:01:09;99431.20;;;23.40
68588;BMP180;55560;52.174;20.996;2023-04-24T13:03:36;99441.40;;;23.30
68588;BMP180;55560;52.174;20.996;2023-04-24T13:06:05;99438.80;;;23.38
68588;BMP180;55560;52.174;20.996;2023-04-24T13:08:32;99435.20;;;23.44
68588;BMP180;55560;52.174;20.996;2023-04-24T13:11:00;99425.60;;;23.60
68588;BMP180;55560;52.174;20.996;2023-04-24T13:13:32;99419.80;;;23.62
68588;BMP180;55560;52.174;20.996;2023-04-24T13:16:00;99424.00;;;23.70
68588;BMP180;55560;52.174;20.996;2023-04-24T13:18:28;99414.60;;;23.60
68588;BMP180;55560;52.174;20.996;2023-04-24T13:20:55;99415.80;;;23.60
68588;BMP180;55560;52.174;20.996;2023-04-24T13:23:23;99410.20;;;23.60
68588;BMP180;55560;52.174;20.996;2023-04-24T13:25:53;99407.80;;;23.70
68588;BMP180;55560;52.174;20.996;2023-04-24T13:28:25;99406.20;;;23.80
68588;BMP180;55560;52.174;20.996;2023-04-24T13:30:52;99409.60;;;23.90
68588;BMP180;55560;52.174;20.996;2023-04-24T13:33:20;99409.40;;;24.00
68588;BMP180;55560;52.174;20.996;2023-04-24T13:35:48;99410.00;;;24.20
68588;BMP180;55560;52.174;20.996;2023-04-24T13:38:16;99420.00;;;24.40
68588;BMP180;55560;52.174;20.996;2023-04-24T13:40:44;99423.20;;;24.60
68588;BMP180;55560;52.174;20.996;2023-04-24T13:43:11;99424.60;;;24.80
68588;BMP180;55560;52.174;20.996;2023-04-24T13:45:39;99427.80;;;24.90
68588;BMP180;55560;52.174;20.996;2023-04-24T13:48:07;99423.60;;;25.20
68588;BMP180;55560;52.174;20.996;2023-04-24T13:50:38;99424.20;;;25.30
68588;BMP180;55560;52.174;20.996;2023-04-24T13:53:06;99421.40;;;25.60
68588;BMP180;55560;52.174;20.996;2023-04-24T13:55:34;99417.40;;;25.40
68588;BMP180;55560;52.174;20.996;2023-04-24T13:58:02;99416.80;;;25.20
68588;BMP180;55560;52.174;20.996;2023-04-24T14:00:30;99410.20;;;24.90
68588;BMP180;55560;52.174;20.996;2023-04-24T14:02:58;99408.60;;;24.60
68588;BMP180;55560;52.174;20.996;2023-04-24T14:05:27;99399.20;;;24.38
68588;BMP180;55560;52.174;20.996;2023-04-24T14:07:54;99395.20;;;24.10
68588;BMP180;55560;52.174;20.996;2023-04-24T14:10:22;99411.00;;;23.90
68588;BMP180;55560;52.174;20.996;2023-04-24T14:12:50;99371.20;;;23.60
68588;BMP180;55560;52.174;20.996;2023-04-24T14:15:19;99363.20;;;23.48
68588;BMP180;55560;52.174;20.996;2023-04-24T14:17:48;99361.40;;;23.30
68588;BMP180;55560;52.174;20.996;2023-04-24T14:20:17;99354.20;;;23.20
68588;BMP180;55560;52.174;20.996;2023-04-24T14:22:44;99353.80;;;23.10
